Details From LYBE - Belgrade
To LYTV - Tivat
Flight Number -
Tags generated
Created
Modified
Stats Distance 161 nm / 297 km
Max Altitude 18,400 ft / 5,608 m
Waypoints 3
Social Downloads 3
Likes 0
Share VATSIM

Download

Looking for another format? Having issues loading an existing format? Contact us
Advertisement - Login to hide

Notes

Basic altitude profile: - Ascent Rate: 2500ft/min - Ascent Speed: 250kts - Cruise Altitude: 35000ft - Cruise Speed: 420kts - Descent Rate: 1500ft/min - Descent Speed: 250kts Options: - Use NATs: yes - Use PACOTS: yes - Use low airways: yes - Use high airways: yes

Route

LYBE PESAK LYTV

ID Type Via Altitude (ft/m) Position (lat/lon) Dist (leg/tot) Name
O LYBE APT - 0 / 0 44.81843 / 20.30921 - / 0 nm Belgrade
PESAK FIX - 18,400 / 5,608 43.71861 / 19.50417 74 / 74 nm
O LYTV APT - 0 / 0 42.40466 / 18.72329 86 / 160 nm Tivat

Altitude Profile

Advertisement - Login to hide

LYBE

Details ICAO LYBE (BEG)
Name Belgrade
Region Serbia and Montenegro
Timezone Europe/Belgrade (UTC+2.0)
Stats Elevation 334 ft / 102 m (AMSL)
Location 44.818500° 20.309200°
Runways 1
Magnetic Variation 4.764° E

METAR

LYBE 201030Z 27007KT 240V300 6000 SCT008 BKN040 16/14 Q1023 NOSIG

Decode

TAF

TAF AMD LYBE 200700Z 2007/2106 30008KT 5000 BR BKN005 TX19/2013Z TN09/2105Z TEMPO 2007/2009 3000 BKN003 BECMG 2009/2011 8000 NSW SCT033 TEMPO 2102/2106 4000 SHRA SCT033TCU SCT040

Decode

Departure Runways

ID Width Length Bearing (true/mag) Surface Threshold Overrun Markings Lighting
12 148 ft / 45 m 11,149 ft / 3,398 m 122.00° / 117.24° ASPHALT 0 ft / 0 m 0 ft / 0 m PREC-APP CENTERLINE EDGE THRESHOLD ALSF-II REIL-OMNI
30 148 ft / 45 m 11,149 ft / 3,398 m 302.03° / 297.26° ASPHALT 1,299 ft / 396 m 194 ft / 59 m PREC-APP CENTERLINE EDGE THRESHOLD ALSF-I REIL-OMNI

LYTV

Details ICAO LYTV (TIV)
Name Tivat
Region Serbia and Montenegro
Timezone Europe/Podgorica (UTC+2.0)
Stats Elevation 20 ft / 6 m (AMSL)
Location 42.404700° 18.723300°
Runways 1
Magnetic Variation 4.251° E

METAR

LYTV 201030Z VRB05KT 9999 FEW060 27/07 Q1018 NOSIG

Decode

TAF

TAF LYTV 200500Z 2006/2106 VRB02KT CAVOK TX26/2013Z TN12/2104Z

Decode

Destination Runways

ID Width Length Bearing (true/mag) Surface Threshold Overrun Markings Lighting
14 148 ft / 45 m 8,210 ft / 2,503 m 138.97° / 134.72° ASPHALT 0 ft / 0 m 0 ft / 0 m APP CENTERLINE EDGE THRESHOLD MALSF
32 148 ft / 45 m 8,210 ft / 2,503 m 318.99° / 314.74° ASPHALT 0 ft / 0 m 0 ft / 0 m APP CENTERLINE EDGE THRESHOLD MALSF

Approach Navaids

Runway Type Ident Frequency Range Bearing (true/mag) Slope Elevation
32 LOC-LOC TIV 111.30 MHz 50 nm / 93 km 339.00° / 334.75 ° - 56 ft / 17 m (AMSL)
32 DME TIV 111.30 MHz 18 nm / 33 km - - 49 ft / 15 m (AMSL)

Popular Alternatives